Oakland, Florida
Current Conditions -  °F | °C
As of 7:53 AM on Thursday 23 Oct 2014 (Local Time) from KORL Reporting Station
Clear Clear  
Wind Chill: 64°   Ceiling: Unl
Heat Index: 64°   Visibility: 10mi
Dew Point: 57°   Wind: 6mph
Humidity: 78%   Direction: 360°N
Pressure: 30"   Gusts: NA
Location:  28.55°N, 81.63°W
Report Text: KORL 231153Z AUTO 36005KT 10SM CLR 18/14 A3000 RMK AO2 SLP162 T01780139 10194 20178 53010
Loading
Personal Weather Stations






























Interactive Weather Map
Tropical Storm Tracking
New forecast layout! Learn more

10-Day Weather Forecast

Advertisements
Track Severe Weather on mobile